createdAt,value
2022-11-05T00:00:38.143Z,86.15
2022-11-05T00:03:23.584Z,85.87
2022-11-05T00:06:11.419Z,85.77
2022-11-05T00:08:57.793Z,86.27
2022-11-05T00:11:44.912Z,85.98
2022-11-05T00:14:30.760Z,86.02
2022-11-05T00:16:57.696Z,87.48
2022-11-05T00:19:24.720Z,86.64
2022-11-05T00:22:10.008Z,86.81
2022-11-05T00:24:55.185Z,86.61
2022-11-05T00:27:22.103Z,86.47
2022-11-05T00:29:49.037Z,87.28
2022-11-05T00:32:16.062Z,87.45
2022-11-05T00:34:43.025Z,86.84
2022-11-05T00:37:09.915Z,88.57
2022-11-05T00:39:36.985Z,86.74
2022-11-05T00:42:22.557Z,86.22
2022-11-05T00:45:01.181Z,87.27
2022-11-05T00:47:51.445Z,87.04
2022-11-05T00:50:21.579Z,87.88
2022-11-05T00:52:57.962Z,86.35
2022-11-05T00:55:41.689Z,86.14
2022-11-05T00:58:18.237Z,86.68
2022-11-05T01:00:50.605Z,86.46
2022-11-05T01:03:20.300Z,86.75
2022-11-05T01:05:51.706Z,86.94
2022-11-05T01:08:21.653Z,86.65
2022-11-05T01:10:53.081Z,86.59
2022-11-05T01:13:29.634Z,87.42
2022-11-05T01:15:57.313Z,87.91
2022-11-05T01:18:25.240Z,86.98
2022-11-05T01:20:52.272Z,87.34
2022-11-05T01:23:19.663Z,86.67
2022-11-05T01:25:46.993Z,87.28
2022-11-05T01:28:13.922Z,86.46
2022-11-05T01:30:40.912Z,86.70
2022-11-05T01:33:08.390Z,86.82
2022-11-05T01:35:35.513Z,86.98
2022-11-05T01:38:02.506Z,86.86
2022-11-05T01:40:29.459Z,86.63
2022-11-05T01:42:56.443Z,86.34
2022-11-05T01:45:28.012Z,86.25
2022-11-05T01:48:08.048Z,85.88
2022-11-05T01:50:43.651Z,85.98
2022-11-05T01:53:21.068Z,87.30
2022-11-05T01:56:03.052Z,86.99
2022-11-05T01:58:39.772Z,87.95
2022-11-05T02:01:06.825Z,87.13
2022-11-05T02:03:34.544Z,87.04
2022-11-05T02:06:03.744Z,86.51
2022-11-05T02:09:07.318Z,86.32
2022-11-05T02:11:34.607Z,86.46
2022-11-05T02:14:01.710Z,86.78
2022-11-05T02:16:54.305Z,86.43
2022-11-05T02:20:09.405Z,86.20
2022-11-05T02:23:01.330Z,85.99
2022-11-05T02:26:15.131Z,86.14
2022-11-05T02:29:33.969Z,85.83
2022-11-05T02:32:33.311Z,86.20
2022-11-05T02:35:13.050Z,86.38
2022-11-05T02:37:53.091Z,86.26
2022-11-05T02:40:20.616Z,86.18
2022-11-05T02:43:27.907Z,86.53
2022-11-05T02:46:00.436Z,86.46
2022-11-05T02:48:50.064Z,85.98
2022-11-05T02:51:32.321Z,85.98
2022-11-05T02:54:33.209Z,85.89
2022-11-05T02:57:02.890Z,86.22
2022-11-05T02:59:30.601Z,86.54
2022-11-05T03:01:58.914Z,86.43
2022-11-05T03:04:27.393Z,86.34
2022-11-05T03:07:17.115Z,86.25
2022-11-05T03:10:38.096Z,86.16
2022-11-05T03:13:17.425Z,86.66
2022-11-05T03:15:58.117Z,86.00
2022-11-05T03:18:50.280Z,86.21
2022-11-05T03:21:45.688Z,86.52
2022-11-05T03:24:30.494Z,86.38
2022-11-05T03:27:15.174Z,86.65
2022-11-05T03:29:50.545Z,86.82
2022-11-05T03:32:20.990Z,86.34
2022-11-05T03:34:56.683Z,86.56
2022-11-05T03:37:27.071Z,86.57
2022-11-05T03:39:59.485Z,86.58
2022-11-05T03:42:30.887Z,86.65
2022-11-05T03:45:03.053Z,86.83
2022-11-05T03:47:40.698Z,86.56
2022-11-05T03:50:23.867Z,86.31
2022-11-05T03:52:59.921Z,86.54
2022-11-05T03:55:41.227Z,86.42
2022-11-05T03:58:09.306Z,86.66
2022-11-05T04:00:37.582Z,86.69
2022-11-05T04:03:04.615Z,86.20
2022-11-05T04:05:31.616Z,86.29
2022-11-05T04:08:17.120Z,86.92
2022-11-05T04:11:06.924Z,86.69
2022-11-05T04:13:34.017Z,86.71
2022-11-05T04:16:19.333Z,86.94
2022-11-05T04:18:46.254Z,86.50
2022-11-05T04:21:31.648Z,87.34
2022-11-05T04:24:10.522Z,86.70
2022-11-05T04:26:43.968Z,86.21
2022-11-05T04:29:30.327Z,86.55
2022-11-05T04:31:57.259Z,86.81
2022-11-05T04:34:24.487Z,87.04
2022-11-05T04:36:53.096Z,86.72
2022-11-05T04:39:21.104Z,87.00
2022-11-05T04:41:48.546Z,86.61
2022-11-05T04:44:16.642Z,86.59
2022-11-05T04:46:43.775Z,86.53
2022-11-05T04:49:10.688Z,86.66
2022-11-05T04:51:37.615Z,86.69
2022-11-05T04:54:04.630Z,86.91
2022-11-05T04:56:31.620Z,86.77
2022-11-05T04:58:58.556Z,86.74
2022-11-05T05:01:25.824Z,87.18
2022-11-05T05:03:54.670Z,87.07
2022-11-05T05:06:22.531Z,86.69
2022-11-05T05:08:51.361Z,86.53
2022-11-05T05:11:21.072Z,86.63
2022-11-05T05:13:48.846Z,86.80
2022-11-05T05:16:23.723Z,87.01
2022-11-05T05:18:51.469Z,87.63
2022-11-05T05:21:39.631Z,87.00
2022-11-05T05:24:15.214Z,87.61
2022-11-05T05:26:47.230Z,87.58
2022-11-05T05:29:14.819Z,87.09
2022-11-05T05:31:42.244Z,87.33
2022-11-05T05:34:12.804Z,86.82
2022-11-05T05:36:39.851Z,86.93
2022-11-05T05:39:08.488Z,86.83
2022-11-05T05:41:35.471Z,87.67
2022-11-05T05:44:04.110Z,87.29
2022-11-05T05:46:31.029Z,87.35
2022-11-05T05:48:58.093Z,87.32
2022-11-05T05:51:25.066Z,87.06
2022-11-05T05:53:54.644Z,86.96
2022-11-05T05:56:21.752Z,86.86
2022-11-05T05:58:49.165Z,86.83
2022-11-05T06:01:19.734Z,87.14
2022-11-05T06:03:48.216Z,86.68
2022-11-05T06:06:19.612Z,87.08
2022-11-05T06:08:47.423Z,86.92
2022-11-05T06:11:14.727Z,87.27
2022-11-05T06:13:41.684Z,86.83
2022-11-05T06:16:09.750Z,87.01
2022-11-05T06:18:37.551Z,87.03
2022-11-05T06:21:11.288Z,87.33
2022-11-05T06:23:41.432Z,86.86
2022-11-05T06:26:17.902Z,86.86
2022-11-05T06:28:45.784Z,86.85
2022-11-05T06:31:14.299Z,86.78
2022-11-05T06:33:41.584Z,86.67
2022-11-05T06:36:13.616Z,86.84
2022-11-05T06:38:40.601Z,86.96
2022-11-05T06:41:10.510Z,87.06
2022-11-05T06:43:38.371Z,87.08
2022-11-05T06:46:05.990Z,86.92
2022-11-05T06:48:33.427Z,87.42
2022-11-05T06:51:00.479Z,87.28
2022-11-05T06:53:27.585Z,86.90
2022-11-05T06:55:54.521Z,87.06
2022-11-05T06:58:21.435Z,87.17
2022-11-05T07:00:48.541Z,87.31
2022-11-05T07:03:15.795Z,86.93
2022-11-05T07:05:47.844Z,87.06
2022-11-05T07:08:15.505Z,87.51
2022-11-05T07:10:42.580Z,87.44
2022-11-05T07:13:09.744Z,87.10
2022-11-05T07:15:37.735Z,87.31
2022-11-05T07:18:07.276Z,87.07
2022-11-05T07:20:35.309Z,87.21
2022-11-05T07:23:10.590Z,87.37
2022-11-05T07:25:38.260Z,87.42
2022-11-05T07:28:05.575Z,86.92
2022-11-05T07:30:33.833Z,87.41
2022-11-05T07:33:01.254Z,87.05
2022-11-05T07:35:28.732Z,87.25
2022-11-05T07:37:56.190Z,87.58
2022-11-05T07:40:27.401Z,87.23
2022-11-05T07:43:01.907Z,86.95
2022-11-05T07:45:30.936Z,87.39
2022-11-05T07:48:03.228Z,87.00
2022-11-05T07:50:33.968Z,87.04
2022-11-05T07:53:03.235Z,87.65
2022-11-05T07:55:30.253Z,87.56
2022-11-05T07:57:57.678Z,87.27
2022-11-05T08:00:27.397Z,87.12
2022-11-05T08:03:08.559Z,87.31
2022-11-05T08:05:39.779Z,87.24
2022-11-05T08:08:09.401Z,87.43
2022-11-05T08:10:38.277Z,87.52
2022-11-05T08:13:06.391Z,87.26
2022-11-05T08:15:34.434Z,87.17
2022-11-05T08:18:15.777Z,87.27
2022-11-05T08:20:44.451Z,87.86
2022-11-05T08:23:12.245Z,87.65
2022-11-05T08:25:39.919Z,87.77
2022-11-05T08:28:12.854Z,87.33
2022-11-05T08:30:40.164Z,87.56
2022-11-05T08:33:12.086Z,87.31
2022-11-05T08:35:40.085Z,87.85
2022-11-05T08:38:10.140Z,87.73
2022-11-05T08:40:37.666Z,87.42
2022-11-05T08:43:07.456Z,87.80
2022-11-05T08:45:38.334Z,88.21
2022-11-05T08:48:09.475Z,88.61
2022-11-05T08:50:37.739Z,88.47
2022-11-05T08:53:06.381Z,88.15
2022-11-05T08:55:33.887Z,88.11
2022-11-05T08:58:04.548Z,88.43
2022-11-05T09:00:35.447Z,87.56
2022-11-05T09:03:05.546Z,88.16
2022-11-05T09:05:38.047Z,88.27
2022-11-05T09:08:07.219Z,88.55
2022-11-05T09:10:35.311Z,88.27
2022-11-05T09:13:02.590Z,88.42
2022-11-05T09:15:30.727Z,88.50
2022-11-05T09:17:58.019Z,89.38
2022-11-05T09:20:25.232Z,90.18
2022-11-05T09:22:52.223Z,89.99
2022-11-05T09:25:19.298Z,89.64
2022-11-05T09:27:46.260Z,89.02
2022-11-05T09:30:13.897Z,89.23
2022-11-05T09:32:41.662Z,89.54
2022-11-05T09:35:09.509Z,89.05
2022-11-05T09:37:37.449Z,89.70
2022-11-05T09:40:05.339Z,89.45
2022-11-05T09:42:40.178Z,89.42
2022-11-05T09:45:18.928Z,88.94
2022-11-05T09:48:10.122Z,89.19
2022-11-05T09:50:43.614Z,89.29
2022-11-05T09:53:18.568Z,89.70
2022-11-05T09:55:58.572Z,89.33
2022-11-05T09:58:43.497Z,89.76
2022-11-05T10:01:28.423Z,89.37
2022-11-05T10:03:59.849Z,89.63
2022-11-05T10:06:28.150Z,89.78
2022-11-05T10:09:13.496Z,89.93
2022-11-05T10:11:57.911Z,89.75
2022-11-05T10:14:49.124Z,89.50
2022-11-05T10:17:22.210Z,89.74
2022-11-05T10:20:13.717Z,89.63
2022-11-05T10:22:43.944Z,89.31
2022-11-05T10:25:21.577Z,89.85
2022-11-05T10:27:54.051Z,89.78
2022-11-05T10:30:21.956Z,89.63
2022-11-05T10:32:52.204Z,89.66
2022-11-05T10:35:23.636Z,89.73
2022-11-05T10:37:53.428Z,90.11
2022-11-05T10:40:49.445Z,90.25
2022-11-05T10:43:42.196Z,90.01
2022-11-05T10:46:44.266Z,90.26
2022-11-05T10:49:45.282Z,90.25
2022-11-05T10:52:34.901Z,90.58
2022-11-05T10:55:27.141Z,90.62
2022-11-05T10:57:54.115Z,90.47
2022-11-05T11:00:25.800Z,90.92
2022-11-05T11:03:02.444Z,90.90
2022-11-05T11:05:40.075Z,91.11
2022-11-05T11:08:23.940Z,90.94
2022-11-05T11:11:02.103Z,90.49
2022-11-05T11:13:59.073Z,90.66
2022-11-05T11:16:29.159Z,90.35
2022-11-05T11:19:01.014Z,90.76
2022-11-05T11:21:30.929Z,90.47
2022-11-05T11:24:04.860Z,90.23
2022-11-05T11:26:38.007Z,90.41
2022-11-05T11:29:07.557Z,90.73
2022-11-05T11:31:41.828Z,90.58
2022-11-05T11:34:29.992Z,90.68
2022-11-05T11:37:07.234Z,90.72
2022-11-05T11:39:34.819Z,90.95
2022-11-05T11:42:11.184Z,91.01
2022-11-05T11:44:46.052Z,91.00
2022-11-05T11:47:17.389Z,90.97
2022-11-05T11:50:00.187Z,91.13
2022-11-05T11:52:32.850Z,90.74
2022-11-05T11:55:11.915Z,90.95
2022-11-05T11:57:50.427Z,91.05
2022-11-05T12:00:19.248Z,91.07
2022-11-05T12:03:10.658Z,91.18
2022-11-05T12:05:52.682Z,91.25
2022-11-05T12:08:56.350Z,90.96
2022-11-05T12:12:03.078Z,90.64
2022-11-05T12:15:16.956Z,90.69
2022-11-05T12:18:02.402Z,90.51
2022-11-05T12:20:59.998Z,90.87
2022-11-05T12:24:09.248Z,90.95
2022-11-05T12:27:18.507Z,90.54
2022-11-05T12:30:13.784Z,90.90
2022-11-05T12:33:14.308Z,90.83
2022-11-05T12:36:14.500Z,90.66
2022-11-05T12:39:28.530Z,90.76
2022-11-05T12:42:11.353Z,90.62
2022-11-05T12:45:08.790Z,90.79
2022-11-05T12:48:02.595Z,90.97
2022-11-05T12:50:49.623Z,91.39
2022-11-05T12:53:53.983Z,92.02
2022-11-05T12:56:39.260Z,92.27
2022-11-05T12:59:39.690Z,92.20
2022-11-05T13:02:36.012Z,92.62
2022-11-05T13:05:37.615Z,92.55
2022-11-05T13:08:46.388Z,91.88
2022-11-05T13:11:47.023Z,89.74
2022-11-05T13:14:21.443Z,90.18
2022-11-05T13:17:01.068Z,89.94
2022-11-05T13:19:56.841Z,90.01
2022-11-05T13:22:38.716Z,89.18
2022-11-05T13:25:31.292Z,89.26
2022-11-05T13:28:31.764Z,89.31
2022-11-05T13:31:03.685Z,89.53
2022-11-05T13:33:37.526Z,89.60
2022-11-05T13:36:45.767Z,89.50
2022-11-05T13:39:31.504Z,89.71
2022-11-05T13:42:47.376Z,89.77
2022-11-05T13:45:52.353Z,88.85
2022-11-05T13:49:00.489Z,89.60
2022-11-05T13:52:31.851Z,89.64
2022-11-05T13:55:20.540Z,89.84
2022-11-05T13:58:02.960Z,89.55
2022-11-05T14:00:39.960Z,89.38
2022-11-05T14:03:18.227Z,88.62
2022-11-05T14:05:55.884Z,88.78
2022-11-05T14:08:29.276Z,88.92
2022-11-05T14:11:17.273Z,89.25
2022-11-05T14:13:46.208Z,89.05
2022-11-05T14:16:27.863Z,88.73
2022-11-05T14:19:19.685Z,89.07
2022-11-05T14:21:57.648Z,88.88
2022-11-05T14:24:38.255Z,89.10
2022-11-05T14:27:05.157Z,88.97
2022-11-05T14:29:47.117Z,89.37
2022-11-05T14:32:17.068Z,89.50
2022-11-05T14:35:24.553Z,88.83
2022-11-05T14:37:57.120Z,88.78
2022-11-05T14:40:42.363Z,89.48
2022-11-05T14:43:24.330Z,89.06
2022-11-05T14:45:56.095Z,89.00
2022-11-05T14:48:40.321Z,88.68
2022-11-05T14:51:44.073Z,88.69
2022-11-05T14:54:36.851Z,88.39
2022-11-05T14:57:04.345Z,88.57
2022-11-05T14:59:50.099Z,88.69
2022-11-05T15:02:24.597Z,88.20
2022-11-05T15:05:48.539Z,88.00
2022-11-05T15:08:37.090Z,87.14
2022-11-05T15:11:39.326Z,87.12
2022-11-05T15:14:23.849Z,86.69
2022-11-05T15:16:58.841Z,87.17
2022-11-05T15:19:34.636Z,87.54
2022-11-05T15:22:06.903Z,87.36
2022-11-05T15:24:34.776Z,87.02
2022-11-05T15:27:33.612Z,86.83
2022-11-05T15:30:15.378Z,86.78
2022-11-05T15:32:42.339Z,87.43
2022-11-05T15:35:30.097Z,87.70
2022-11-05T15:38:02.573Z,87.71
2022-11-05T15:40:33.164Z,87.63
2022-11-05T15:43:19.514Z,87.75
2022-11-05T15:46:04.769Z,87.45
2022-11-05T15:48:32.861Z,87.17
2022-11-05T15:51:00.212Z,87.03
2022-11-05T15:56:55.451Z,87.34
2022-11-05T15:59:25.856Z,86.98
2022-11-05T16:02:28.501Z,87.16
2022-11-05T16:04:56.795Z,87.03
2022-11-05T16:07:24.320Z,86.83
2022-11-05T16:09:59.356Z,86.94
2022-11-05T16:12:36.985Z,86.93
2022-11-05T16:15:25.575Z,86.53
2022-11-05T16:17:59.419Z,86.63
2022-11-05T16:20:36.938Z,86.50
2022-11-05T16:23:24.898Z,86.62
2022-11-05T16:25:52.046Z,86.66
2022-11-05T16:28:27.811Z,86.94
2022-11-05T16:30:56.344Z,86.62
2022-11-05T16:33:31.413Z,86.73
2022-11-05T16:35:58.536Z,86.40
2022-11-05T16:38:25.661Z,86.62
2022-11-05T16:40:54.011Z,86.61
2022-11-05T16:43:24.762Z,86.77
2022-11-05T16:45:59.018Z,86.35
2022-11-05T16:48:27.513Z,86.78
2022-11-05T16:50:54.502Z,86.44
2022-11-05T16:53:21.562Z,86.85
2022-11-05T16:55:48.780Z,86.50
2022-11-05T16:58:24.921Z,86.88
2022-11-05T17:01:05.624Z,86.31
2022-11-05T17:03:32.902Z,86.55
2022-11-05T17:05:59.928Z,86.38
2022-11-05T17:08:26.860Z,86.66
2022-11-05T17:10:54.075Z,86.97
2022-11-05T17:13:21.472Z,86.68
2022-11-05T17:15:51.276Z,86.39
2022-11-05T17:18:19.462Z,86.47
2022-11-05T17:20:51.117Z,86.43
2022-11-05T17:23:21.729Z,86.07
2022-11-05T17:25:55.414Z,86.02
2022-11-05T17:28:22.631Z,86.38
2022-11-05T17:30:52.914Z,86.26
2022-11-05T17:33:22.732Z,85.82
2022-11-05T17:35:51.014Z,85.68
2022-11-05T17:38:18.985Z,85.69
2022-11-05T17:40:46.349Z,86.15
2022-11-05T17:43:13.734Z,85.59
2022-11-05T17:45:51.862Z,85.65
2022-11-05T17:48:20.960Z,85.82
2022-11-05T17:50:50.505Z,85.59
2022-11-05T17:53:19.153Z,85.82
2022-11-05T17:55:47.396Z,85.95
2022-11-05T17:58:14.842Z,85.89
2022-11-05T18:00:43.767Z,85.47
2022-11-05T18:03:12.097Z,85.61
2022-11-05T18:05:40.938Z,85.38
2022-11-05T18:08:09.273Z,85.58
2022-11-05T18:10:38.127Z,85.65
2022-11-05T18:13:06.431Z,85.64
2022-11-05T18:15:35.382Z,85.92
2022-11-05T18:18:02.620Z,85.74
2022-11-05T18:20:29.687Z,85.66
2022-11-05T18:22:56.647Z,86.03
2022-11-05T18:25:23.970Z,85.78
2022-11-05T18:27:51.078Z,85.97
2022-11-05T18:30:18.212Z,85.93
2022-11-05T18:32:45.688Z,85.80
2022-11-05T18:35:14.312Z,85.33
2022-11-05T18:37:41.376Z,85.74
2022-11-05T18:40:09.628Z,85.79
2022-11-05T18:42:36.657Z,85.88
2022-11-05T18:45:06.582Z,85.19
2022-11-05T18:47:34.057Z,85.48
2022-11-05T18:50:02.135Z,85.77
2022-11-05T18:52:31.472Z,85.36
2022-11-05T18:54:59.700Z,85.80
2022-11-05T18:57:27.103Z,85.93
2022-11-05T18:59:54.257Z,85.46
2022-11-05T19:02:21.334Z,86.03
2022-11-05T19:05:06.996Z,85.77
2022-11-05T19:07:39.274Z,85.97
2022-11-05T19:10:07.633Z,85.84
2022-11-05T19:12:34.553Z,86.90
2022-11-05T19:15:02.932Z,87.29
2022-11-05T19:17:32.846Z,86.79
2022-11-05T19:19:59.885Z,86.77
2022-11-05T19:22:27.125Z,87.04
2022-11-05T19:24:54.274Z,86.67
2022-11-05T19:27:21.224Z,86.28
2022-11-05T19:29:48.164Z,86.71
2022-11-05T19:32:15.395Z,86.90
2022-11-05T19:34:42.339Z,87.15
2022-11-05T19:37:09.473Z,87.06
2022-11-05T19:39:36.623Z,86.81
2022-11-05T19:42:04.663Z,87.15
2022-11-05T19:44:38.167Z,87.38
2022-11-05T19:47:05.246Z,87.34
2022-11-05T19:49:32.305Z,87.66
2022-11-05T19:51:59.266Z,87.65
2022-11-05T19:54:26.614Z,87.72
2022-11-05T19:56:53.643Z,88.00
2022-11-05T19:59:20.705Z,87.95
2022-11-05T20:01:48.716Z,87.92
2022-11-05T20:04:15.783Z,87.71
2022-11-05T20:06:42.764Z,87.82
2022-11-05T20:09:21.734Z,87.71
2022-11-05T20:11:54.964Z,87.79
2022-11-05T20:14:24.301Z,87.77
2022-11-05T20:16:52.176Z,88.34
2022-11-05T20:19:21.911Z,88.24
2022-11-05T20:21:49.334Z,87.61
2022-11-05T20:24:24.636Z,87.29
2022-11-05T20:26:54.641Z,87.57
2022-11-05T20:29:23.344Z,87.91
2022-11-05T20:31:52.380Z,88.54
2022-11-05T20:34:19.489Z,88.73
2022-11-05T20:36:46.549Z,88.43
2022-11-05T20:39:13.989Z,88.33
2022-11-05T20:41:41.134Z,87.94
2022-11-05T20:44:08.357Z,87.90
2022-11-05T20:46:35.613Z,88.51
2022-11-05T20:49:02.781Z,88.82
2022-11-05T20:51:30.229Z,88.71
2022-11-05T20:54:00.101Z,88.82
2022-11-05T20:56:31.748Z,88.52
2022-11-05T20:59:00.227Z,89.00
2022-11-05T21:01:31.725Z,88.31
2022-11-05T21:03:59.695Z,87.96
2022-11-05T21:06:27.425Z,88.58
2022-11-05T21:08:54.947Z,88.03
2022-11-05T21:11:22.214Z,88.36
2022-11-05T21:13:49.937Z,88.57
2022-11-05T21:16:19.355Z,88.67
2022-11-05T21:18:47.931Z,88.84
2022-11-05T21:21:20.453Z,88.60
2022-11-05T21:23:47.894Z,89.18
2022-11-05T21:26:16.968Z,88.35
2022-11-05T21:28:44.167Z,88.54
2022-11-05T21:31:11.636Z,88.11
2022-11-05T21:33:39.002Z,88.37
2022-11-05T21:36:10.098Z,88.93
2022-11-05T21:38:37.619Z,88.53
2022-11-05T21:41:05.766Z,88.64
2022-11-05T21:43:33.279Z,88.91
2022-11-05T21:46:04.812Z,88.74
2022-11-05T21:48:32.606Z,88.76
2022-11-05T21:51:18.750Z,88.87
2022-11-05T21:54:04.625Z,88.67
2022-11-05T21:56:51.328Z,88.66
2022-11-05T21:59:41.769Z,89.03
2022-11-05T22:02:11.622Z,89.48
2022-11-05T22:04:42.101Z,89.08
2022-11-05T22:07:11.910Z,88.99
2022-11-05T22:09:39.562Z,88.58
2022-11-05T22:12:08.074Z,87.99
2022-11-05T22:14:36.125Z,88.11
2022-11-05T22:17:04.320Z,88.37
2022-11-05T22:19:31.752Z,89.20
2022-11-05T22:21:58.851Z,89.24
2022-11-05T22:24:31.767Z,88.61
2022-11-05T22:27:01.567Z,88.80
2022-11-05T22:29:28.854Z,89.15
2022-11-05T22:31:57.108Z,88.80
2022-11-05T22:34:25.618Z,88.89
2022-11-05T22:36:52.818Z,88.89
2022-11-05T22:39:20.710Z,88.61
2022-11-05T22:41:48.570Z,88.38
2022-11-05T22:44:17.246Z,88.45
2022-11-05T22:46:44.482Z,88.36
2022-11-05T22:49:21.425Z,88.77
2022-11-05T22:51:48.816Z,88.96
2022-11-05T22:54:16.228Z,88.94
2022-11-05T22:56:46.611Z,88.94
2022-11-05T22:59:15.710Z,89.13
2022-11-05T23:01:45.087Z,88.69
2022-11-05T23:04:14.052Z,88.53
2022-11-05T23:07:02.046Z,89.41
2022-11-05T23:09:53.383Z,88.78
2022-11-05T23:12:31.464Z,89.54
2022-11-05T23:15:03.650Z,88.85
2022-11-05T23:17:54.360Z,89.04
2022-11-05T23:20:42.697Z,89.07
2022-11-05T23:23:30.207Z,88.87
2022-11-05T23:26:20.914Z,89.24
2022-11-05T23:28:47.993Z,89.53
2022-11-05T23:31:33.706Z,89.01
2022-11-05T23:34:01.105Z,89.23
2022-11-05T23:36:46.543Z,89.43
2022-11-05T23:39:13.496Z,88.51
2022-11-05T23:42:01.526Z,89.00
2022-11-05T23:44:46.881Z,89.30
2022-11-05T23:47:32.225Z,89.11
2022-11-05T23:49:59.141Z,89.13
2022-11-05T23:52:26.063Z,88.99
2022-11-05T23:54:52.971Z,88.78
2022-11-05T23:57:19.915Z,89.48
2022-11-05T23:59:46.978Z,89.51
